sensor_id;sensor_type;location;lat;lon;timestamp;pressure;altitude;pressure_sealevel;temperature;humidity
37972;BME280;23794;48.234;8.344;2023-04-23T00:02:17;93737.00;;;10.73;67.98
37972;BME280;23794;48.234;8.344;2023-04-23T00:04:49;93737.03;;;10.70;68.92
37972;BME280;23794;48.234;8.344;2023-04-23T00:07:18;93741.88;;;10.58;68.68
37972;BME280;23794;48.234;8.344;2023-04-23T00:09:45;93739.97;;;10.55;69.70
37972;BME280;23794;48.234;8.344;2023-04-23T00:12:12;93742.75;;;10.52;70.08
37972;BME280;23794;48.234;8.344;2023-04-23T00:14:39;93747.88;;;10.50;70.20
37972;BME280;23794;48.234;8.344;2023-04-23T00:17:06;93747.88;;;10.50;71.34
37972;BME280;23794;48.234;8.344;2023-04-23T00:19:33;93740.19;;;10.37;71.56
37972;BME280;23794;48.234;8.344;2023-04-23T00:21:59;93745.22;;;10.43;71.46
37972;BME280;23794;48.234;8.344;2023-04-23T00:24:26;93750.88;;;10.28;73.01
37972;BME280;23794;48.234;8.344;2023-04-23T00:26:53;93753.94;;;10.34;72.28
37972;BME280;23794;48.234;8.344;2023-04-23T00:29:19;93751.28;;;10.26;72.78
37972;BME280;23794;48.234;8.344;2023-04-23T00:31:46;93755.25;;;10.22;73.22
37972;BME280;23794;48.234;8.344;2023-04-23T00:34:12;93757.25;;;10.18;75.37
37972;BME280;23794;48.234;8.344;2023-04-23T00:36:39;93756.28;;;10.01;76.21
37972;BME280;23794;48.234;8.344;2023-04-23T00:39:05;93753.59;;;9.97;75.89
37972;BME280;23794;48.234;8.344;2023-04-23T00:41:33;93753.59;;;9.97;75.41
37972;BME280;23794;48.234;8.344;2023-04-23T00:43:59;93757.97;;;9.91;76.47
37972;BME280;23794;48.234;8.344;2023-04-23T00:46:26;93761.00;;;9.97;75.81
37972;BME280;23794;48.234;8.344;2023-04-23T00:48:54;93761.34;;;10.02;75.57
37972;BME280;23794;48.234;8.344;2023-04-23T00:51:21;93761.34;;;10.02;75.22
37972;BME280;23794;48.234;8.344;2023-04-23T00:53:50;93756.28;;;10.01;76.14
37972;BME280;23794;48.234;8.344;2023-04-23T00:56:20;93759.06;;;9.97;76.18
37972;BME280;23794;48.234;8.344;2023-04-23T00:58:48;93752.41;;;9.98;75.68
37972;BME280;23794;48.234;8.344;2023-04-23T01:01:15;93750.09;;;9.93;76.45
37972;BME280;23794;48.234;8.344;2023-04-23T01:03:50;93760.00;;;9.80;76.91
37972;BME280;23794;48.234;8.344;2023-04-23T01:06:18;93749.13;;;9.76;76.72
37972;BME280;23794;48.234;8.344;2023-04-23T01:08:45;93751.88;;;9.72;77.72
37972;BME280;23794;48.234;8.344;2023-04-23T01:11:13;93752.63;;;9.76;76.72
37972;BME280;23794;48.234;8.344;2023-04-23T01:13:41;93747.47;;;9.82;76.54
37972;BME280;23794;48.234;8.344;2023-04-23T01:16:09;93746.41;;;9.72;77.08
37972;BME280;23794;48.234;8.344;2023-04-23T01:18:36;93747.59;;;9.71;77.78
37972;BME280;23794;48.234;8.344;2023-04-23T01:21:04;93748.00;;;9.70;77.39
37972;BME280;23794;48.234;8.344;2023-04-23T01:23:31;93747.66;;;9.64;77.40
37972;BME280;23794;48.234;8.344;2023-04-23T01:25:57;93750.47;;;9.57;78.58
37972;BME280;23794;48.234;8.344;2023-04-23T01:28:26;93747.00;;;9.53;78.36
37972;BME280;23794;48.234;8.344;2023-04-23T01:30:52;93747.31;;;9.58;78.15
37972;BME280;23794;48.234;8.344;2023-04-23T01:33:19;93741.81;;;9.62;77.42
37972;BME280;23794;48.234;8.344;2023-04-23T01:35:46;93742.25;;;9.60;77.76
37972;BME280;23794;48.234;8.344;2023-04-23T01:38:14;93748.53;;;9.57;77.95
37972;BME280;23794;48.234;8.344;2023-04-23T01:40:42;93753.19;;;9.60;77.60
37972;BME280;23794;48.234;8.344;2023-04-23T01:43:09;93742.66;;;9.59;77.43
37972;BME280;23794;48.234;8.344;2023-04-23T01:45:36;93746.22;;;9.52;78.10
37972;BME280;23794;48.234;8.344;2023-04-23T01:48:03;93730.63;;;9.49;78.05
37972;BME280;23794;48.234;8.344;2023-04-23T01:50:29;93741.19;;;9.47;77.64
37972;BME280;23794;48.234;8.344;2023-04-23T01:52:56;93740.84;;;9.41;77.90
37972;BME280;23794;48.234;8.344;2023-04-23T01:55:23;93740.47;;;9.36;78.59
37972;BME280;23794;48.234;8.344;2023-04-23T01:57:49;93743.69;;;9.27;78.33
37972;BME280;23794;48.234;8.344;2023-04-23T02:00:17;93741.38;;;9.25;77.96
37972;BME280;23794;48.234;8.344;2023-04-23T02:02:44;93738.63;;;9.25;78.01
37972;BME280;23794;48.234;8.344;2023-04-23T02:05:15;93730.06;;;9.23;77.58
37972;BME280;23794;48.234;8.344;2023-04-23T02:07:49;93737.09;;;9.21;77.82
37972;BME280;23794;48.234;8.344;2023-04-23T02:10:16;93735.13;;;9.21;77.50
37972;BME280;23794;48.234;8.344;2023-04-23T02:12:44;93737.50;;;9.19;77.55
37972;BME280;23794;48.234;8.344;2023-04-23T02:15:10;93737.19;;;9.10;77.51
37972;BME280;23794;48.234;8.344;2023-04-23T02:17:40;93736.50;;;8.98;78.78
37972;BME280;23794;48.234;8.344;2023-04-23T02:20:08;93739.63;;;8.97;78.90
37972;BME280;23794;48.234;8.344;2023-04-23T02:22:36;93736.50;;;8.98;78.17
37972;BME280;23794;48.234;8.344;2023-04-23T02:25:04;93742.34;;;9.01;77.86
37972;BME280;23794;48.234;8.344;2023-04-23T02:27:32;93732.59;;;8.96;78.22
37972;BME280;23794;48.234;8.344;2023-04-23T02:29:59;93739.59;;;9.01;78.29
37972;BME280;23794;48.234;8.344;2023-04-23T02:32:25;93737.28;;;8.99;78.29
37972;BME280;23794;48.234;8.344;2023-04-23T02:34:53;93736.91;;;8.97;77.62
37972;BME280;23794;48.234;8.344;2023-04-23T02:37:20;93739.69;;;8.90;77.30
37972;BME280;23794;48.234;8.344;2023-04-23T02:39:46;93742.00;;;8.91;77.13
37972;BME280;23794;48.234;8.344;2023-04-23T02:42:13;93740.88;;;8.85;77.41
37972;BME280;23794;48.234;8.344;2023-04-23T02:44:39;93739.38;;;8.77;78.03
37972;BME280;23794;48.234;8.344;2023-04-23T02:47:07;93735.13;;;8.72;77.36
37972;BME280;23794;48.234;8.344;2023-04-23T02:49:33;93728.13;;;8.67;76.79
37972;BME280;23794;48.234;8.344;2023-04-23T02:52:00;93728.13;;;8.64;77.49
37972;BME280;23794;48.234;8.344;2023-04-23T02:54:26;93720.38;;;8.59;76.58
37972;BME280;23794;48.234;8.344;2023-04-23T02:56:53;93716.47;;;8.60;76.87
37972;BME280;23794;48.234;8.344;2023-04-23T02:59:20;93726.63;;;8.56;77.13
37972;BME280;23794;48.234;8.344;2023-04-23T03:01:46;93736.41;;;8.49;77.23
37972;BME280;23794;48.234;8.344;2023-04-23T03:04:13;93736.84;;;8.44;77.73
37972;BME280;23794;48.234;8.344;2023-04-23T03:06:41;93741.63;;;8.22;77.98
37972;BME280;23794;48.234;8.344;2023-04-23T03:09:10;93742.81;;;8.21;77.85
37972;BME280;23794;48.234;8.344;2023-04-23T03:11:38;93732.28;;;8.19;77.91
37972;BME280;23794;48.234;8.344;2023-04-23T03:14:10;93732.75;;;8.07;78.05
37972;BME280;23794;48.234;8.344;2023-04-23T03:16:37;93737.41;;;8.07;77.97
37972;BME280;23794;48.234;8.344;2023-04-23T03:19:04;93748.00;;;7.90;78.87
37972;BME280;23794;48.234;8.344;2023-04-23T03:21:31;93749.16;;;7.93;78.38
37972;BME280;23794;48.234;8.344;2023-04-23T03:23:57;93744.88;;;7.92;78.92
37972;BME280;23794;48.234;8.344;2023-04-23T03:26:24;93754.22;;;7.94;78.38
37972;BME280;23794;48.234;8.344;2023-04-23T03:28:51;93741.00;;;7.89;78.41
37972;BME280;23794;48.234;8.344;2023-04-23T03:31:17;93748.00;;;7.94;78.43
37972;BME280;23794;48.234;8.344;2023-04-23T03:33:44;93750.75;;;7.83;78.92
37972;BME280;23794;48.234;8.344;2023-04-23T03:36:11;93743.72;;;7.85;78.42
37972;BME280;23794;48.234;8.344;2023-04-23T03:38:38;93751.50;;;7.91;78.64
37972;BME280;23794;48.234;8.344;2023-04-23T03:41:05;93743.72;;;7.85;78.31
37972;BME280;23794;48.234;8.344;2023-04-23T03:43:32;93732.44;;;7.80;78.41
37972;BME280;23794;48.234;8.344;2023-04-23T03:46:01;93732.03;;;7.81;78.77
37972;BME280;23794;48.234;8.344;2023-04-23T03:48:31;93731.25;;;7.92;78.34
37972;BME280;23794;48.234;8.344;2023-04-23T03:51:00;93737.09;;;7.94;78.37
37972;BME280;23794;48.234;8.344;2023-04-23T03:53:35;93737.88;;;7.91;78.77
37972;BME280;23794;48.234;8.344;2023-04-23T03:56:20;93726.19;;;7.94;78.60
37972;BME280;23794;48.234;8.344;2023-04-23T03:59:11;93730.84;;;7.90;78.32
37972;BME280;23794;48.234;8.344;2023-04-23T04:01:38;93725.41;;;7.86;78.77
37972;BME280;23794;48.234;8.344;2023-04-23T04:04:04;93731.25;;;7.92;78.49
37972;BME280;23794;48.234;8.344;2023-04-23T04:06:32;93720.31;;;7.99;78.18
37972;BME280;23794;48.234;8.344;2023-04-23T04:08:58;93720.31;;;7.99;77.34
37972;BME280;23794;48.234;8.344;2023-04-23T04:11:25;93718.72;;;8.05;77.97
37972;BME280;23794;48.234;8.344;2023-04-23T04:13:52;93727.69;;;8.09;78.46
37972;BME280;23794;48.234;8.344;2023-04-23T04:16:20;93727.28;;;8.11;78.40
37972;BME280;23794;48.234;8.344;2023-04-23T04:18:47;93719.47;;;8.16;77.57
37972;BME280;23794;48.234;8.344;2023-04-23T04:21:13;93721.47;;;8.01;78.08
37972;BME280;23794;48.234;8.344;2023-04-23T04:23:42;93722.66;;;7.93;78.00
37972;BME280;23794;48.234;8.344;2023-04-23T04:26:08;93721.50;;;7.87;78.52
37972;BME280;23794;48.234;8.344;2023-04-23T04:28:36;93733.19;;;7.84;78.49
37972;BME280;23794;48.234;8.344;2023-04-23T04:31:03;93731.22;;;7.95;78.54
37972;BME280;23794;48.234;8.344;2023-04-23T04:33:31;93733.16;;;8.02;78.36
37972;BME280;23794;48.234;8.344;2023-04-23T04:35:58;93735.13;;;7.94;78.40
37972;BME280;23794;48.234;8.344;2023-04-23T04:38:25;93740.97;;;7.96;79.24
37972;BME280;23794;48.234;8.344;2023-04-23T04:40:54;93736.66;;;7.99;79.55
37972;BME280;23794;48.234;8.344;2023-04-23T04:43:24;93746.00;;;8.01;80.27
37972;BME280;23794;48.234;8.344;2023-04-23T04:45:50;93745.59;;;8.07;79.12
37972;BME280;23794;48.234;8.344;2023-04-23T04:48:16;93747.53;;;8.13;78.88
37972;BME280;23794;48.234;8.344;2023-04-23T04:50:43;93747.09;;;8.18;79.10
37972;BME280;23794;48.234;8.344;2023-04-23T04:53:10;93740.13;;;8.17;79.18
37972;BME280;23794;48.234;8.344;2023-04-23T04:55:36;93739.66;;;8.26;78.38
37972;BME280;23794;48.234;8.344;2023-04-23T04:58:03;93729.09;;;8.35;78.05
37972;BME280;23794;48.234;8.344;2023-04-23T05:00:29;93729.09;;;8.35;77.58
37972;BME280;23794;48.234;8.344;2023-04-23T05:02:56;93733.78;;;8.31;78.50
37972;BME280;23794;48.234;8.344;2023-04-23T05:05:24;93742.34;;;8.37;79.49
37972;BME280;23794;48.234;8.344;2023-04-23T05:07:51;93747.38;;;8.42;78.93
37972;BME280;23794;48.234;8.344;2023-04-23T05:10:20;93741.88;;;8.49;78.93
37972;BME280;23794;48.234;8.344;2023-04-23T05:12:46;93743.78;;;8.60;78.68
37972;BME280;23794;48.234;8.344;2023-04-23T05:15:13;93737.13;;;8.64;78.13
37972;BME280;23794;48.234;8.344;2023-04-23T05:17:40;93732.03;;;8.70;77.69
37972;BME280;23794;48.234;8.344;2023-04-23T05:20:07;93735.13;;;8.72;76.81
37972;BME280;23794;48.234;8.344;2023-04-23T05:22:38;93738.69;;;8.65;76.17
37972;BME280;23794;48.234;8.344;2023-04-23T05:25:06;93739.47;;;8.62;77.00
37972;BME280;23794;48.234;8.344;2023-04-23T05:27:33;93742.19;;;8.62;78.21
37972;BME280;23794;48.234;8.344;2023-04-23T05:30:04;93749.22;;;8.63;78.04
37972;BME280;23794;48.234;8.344;2023-04-23T05:32:31;93745.63;;;8.77;77.11
37972;BME280;23794;48.234;8.344;2023-04-23T05:35:00;93739.41;;;8.70;77.46
37972;BME280;23794;48.234;8.344;2023-04-23T05:37:28;93733.94;;;8.73;77.21
37972;BME280;23794;48.234;8.344;2023-04-23T05:39:55;93734.34;;;8.72;77.55
37972;BME280;23794;48.234;8.344;2023-04-23T05:42:23;93736.69;;;8.70;77.76
37972;BME280;23794;48.234;8.344;2023-04-23T05:44:50;93740.56;;;8.72;77.93
37972;BME280;23794;48.234;8.344;2023-04-23T05:47:16;93742.09;;;8.80;78.43
37972;BME280;23794;48.234;8.344;2023-04-23T05:49:43;93738.06;;;8.96;77.81
37972;BME280;23794;48.234;8.344;2023-04-23T05:52:10;93740.13;;;8.85;77.52
37972;BME280;23794;48.234;8.344;2023-04-23T05:54:37;93736.22;;;8.82;77.15
37972;BME280;23794;48.234;8.344;2023-04-23T05:57:04;93737.00;;;8.82;76.84
37972;BME280;23794;48.234;8.344;2023-04-23T05:59:30;93735.84;;;8.80;77.34
37972;BME280;23794;48.234;8.344;2023-04-23T06:01:57;93731.50;;;8.86;77.82
37972;BME280;23794;48.234;8.344;2023-04-23T06:04:24;93730.72;;;8.89;77.93
37972;BME280;23794;48.234;8.344;2023-04-23T06:06:51;93733.69;;;9.06;77.56
37972;BME280;23794;48.234;8.344;2023-04-23T06:09:17;93733.59;;;9.20;77.21
37972;BME280;23794;48.234;8.344;2023-04-23T06:11:44;93724.56;;;9.27;76.67
37972;BME280;23794;48.234;8.344;2023-04-23T06:14:10;93728.19;;;9.13;77.34
37972;BME280;23794;48.234;8.344;2023-04-23T06:16:37;93735.22;;;9.10;77.16
37972;BME280;23794;48.234;8.344;2023-04-23T06:19:04;93744.53;;;9.17;76.54
37972;BME280;23794;48.234;8.344;2023-04-23T06:21:30;93744.16;;;9.18;77.01
37972;BME280;23794;48.234;8.344;2023-04-23T06:23:58;93737.09;;;9.21;76.71
37972;BME280;23794;48.234;8.344;2023-04-23T06:26:24;93734.69;;;9.30;76.38
37972;BME280;23794;48.234;8.344;2023-04-23T06:28:55;93734.56;;;9.48;75.81
37972;BME280;23794;48.234;8.344;2023-04-23T06:31:27;93735.16;;;9.63;76.26
37972;BME280;23794;48.234;8.344;2023-04-23T06:33:54;93726.34;;;9.86;74.14
37972;BME280;23794;48.234;8.344;2023-04-23T06:36:21;93727.44;;;9.92;72.91
37972;BME280;23794;48.234;8.344;2023-04-23T06:38:47;93724.16;;;10.05;73.22
37972;BME280;23794;48.234;8.344;2023-04-23T06:41:14;93718.31;;;10.03;72.85
37972;BME280;23794;48.234;8.344;2023-04-23T06:43:41;93720.63;;;10.08;72.82
37972;BME280;23794;48.234;8.344;2023-04-23T06:46:19;93722.22;;;10.05;71.57
37972;BME280;23794;48.234;8.344;2023-04-23T06:48:46;93722.94;;;10.09;71.02
37972;BME280;23794;48.234;8.344;2023-04-23T06:51:13;93718.97;;;10.14;70.14
37972;BME280;23794;48.234;8.344;2023-04-23T06:53:40;93714.88;;;10.30;71.21
37972;BME280;23794;48.234;8.344;2023-04-23T06:56:07;93709.31;;;10.37;70.24
37972;BME280;23794;48.234;8.344;2023-04-23T06:58:33;93701.16;;;10.33;69.35
37972;BME280;23794;48.234;8.344;2023-04-23T07:01:09;93706.75;;;10.22;70.56
37972;BME280;23794;48.234;8.344;2023-04-23T07:03:37;93702.44;;;10.25;71.53
37972;BME280;23794;48.234;8.344;2023-04-23T07:06:03;93695.31;;;10.31;71.56
37972;BME280;23794;48.234;8.344;2023-04-23T07:08:30;93694.44;;;10.38;71.17
37972;BME280;23794;48.234;8.344;2023-04-23T07:10:57;93689.75;;;10.66;69.66
37972;BME280;23794;48.234;8.344;2023-04-23T07:13:23;93684.84;;;10.81;68.74
37972;BME280;23794;48.234;8.344;2023-04-23T07:15:50;93683.13;;;10.91;67.57
37972;BME280;23794;48.234;8.344;2023-04-23T07:18:17;93682.16;;;11.04;68.23
37972;BME280;23794;48.234;8.344;2023-04-23T07:20:43;93684.47;;;11.30;68.41
37972;BME280;23794;48.234;8.344;2023-04-23T07:23:10;93683.59;;;11.57;67.25
37972;BME280;23794;48.234;8.344;2023-04-23T07:25:36;93681.00;;;11.70;65.99
37972;BME280;23794;48.234;8.344;2023-04-23T07:28:03;93690.94;;;11.83;64.37
37972;BME280;23794;48.234;8.344;2023-04-23T07:30:30;93690.66;;;11.78;62.55
37972;BME280;23794;48.234;8.344;2023-04-23T07:32:56;93678.69;;;11.68;62.92
37972;BME280;23794;48.234;8.344;2023-04-23T07:35:23;93674.66;;;11.93;63.23
37972;BME280;23794;48.234;8.344;2023-04-23T07:37:51;93667.44;;;12.03;61.60
37972;BME280;23794;48.234;8.344;2023-04-23T07:40:22;93673.19;;;11.88;61.10
37972;BME280;23794;48.234;8.344;2023-04-23T07:42:50;93675.38;;;11.77;62.30
37972;BME280;23794;48.234;8.344;2023-04-23T07:45:18;93670.78;;;11.70;61.33
37972;BME280;23794;48.234;8.344;2023-04-23T07:47:44;93669.75;;;11.84;63.16
37972;BME280;23794;48.234;8.344;2023-04-23T07:50:12;93665.16;;;11.97;60.54
37972;BME280;23794;48.234;8.344;2023-04-23T07:52:39;93669.25;;;12.09;60.27
37972;BME280;23794;48.234;8.344;2023-04-23T07:55:07;93671.13;;;12.32;56.88
37972;BME280;23794;48.234;8.344;2023-04-23T07:57:34;93657.38;;;12.53;56.97
37972;BME280;23794;48.234;8.344;2023-04-23T08:00:01;93655.25;;;12.60;56.96
37972;BME280;23794;48.234;8.344;2023-04-23T08:02:37;93640.63;;;12.63;55.78
37972;BME280;23794;48.234;8.344;2023-04-23T08:05:04;93648.78;;;12.51;54.93
37972;BME280;23794;48.234;8.344;2023-04-23T08:07:31;93644.25;;;12.60;55.55
37972;BME280;23794;48.234;8.344;2023-04-23T08:09:57;93655.59;;;12.62;55.54
37972;BME280;23794;48.234;8.344;2023-04-23T08:12:28;93637.56;;;12.61;55.60
37972;BME280;23794;48.234;8.344;2023-04-23T08:14:56;93632.16;;;12.74;55.00
37972;BME280;23794;48.234;8.344;2023-04-23T08:17:29;93640.84;;;13.06;54.74
37972;BME280;23794;48.234;8.344;2023-04-23T08:19:56;93633.59;;;13.12;54.41
37972;BME280;23794;48.234;8.344;2023-04-23T08:22:22;93634.81;;;13.57;55.52
37972;BME280;23794;48.234;8.344;2023-04-23T08:24:49;93624.41;;;13.94;53.77
37972;BME280;23794;48.234;8.344;2023-04-23T08:27:15;93622.34;;;14.11;50.65
37972;BME280;23794;48.234;8.344;2023-04-23T08:29:42;93625.00;;;14.28;50.20
37972;BME280;23794;48.234;8.344;2023-04-23T08:32:09;93624.00;;;14.21;49.26
37972;BME280;23794;48.234;8.344;2023-04-23T08:34:35;93615.84;;;14.31;50.34
37972;BME280;23794;48.234;8.344;2023-04-23T08:37:02;93609.34;;;14.37;51.24
37972;BME280;23794;48.234;8.344;2023-04-23T08:39:33;93621.16;;;14.25;50.21
37972;BME280;23794;48.234;8.344;2023-04-23T08:42:18;93621.56;;;14.24;51.39
37972;BME280;23794;48.234;8.344;2023-04-23T08:44:50;93615.06;;;14.17;51.04
37972;BME280;23794;48.234;8.344;2023-04-23T08:47:22;93620.69;;;14.27;51.24
37972;BME280;23794;48.234;8.344;2023-04-23T08:49:52;93618.84;;;14.36;49.40
37972;BME280;23794;48.234;8.344;2023-04-23T08:52:23;93611.88;;;14.32;48.83
37972;BME280;23794;48.234;8.344;2023-04-23T08:54:53;93613.53;;;14.16;48.94
37972;BME280;23794;48.234;8.344;2023-04-23T08:57:24;93616.69;;;14.02;50.14
37972;BME280;23794;48.234;8.344;2023-04-23T08:59:51;93618.13;;;14.07;49.74
37972;BME280;23794;48.234;8.344;2023-04-23T09:02:17;93614.31;;;14.17;51.09
37972;BME280;23794;48.234;8.344;2023-04-23T09:04:44;93607.47;;;14.47;50.20
37972;BME280;23794;48.234;8.344;2023-04-23T09:07:14;93602.19;;;14.66;49.58
37972;BME280;23794;48.234;8.344;2023-04-23T09:09:41;93596.53;;;14.82;50.03
37972;BME280;23794;48.234;8.344;2023-04-23T09:12:08;93593.97;;;15.14;50.04
37972;BME280;23794;48.234;8.344;2023-04-23T09:14:35;93586.78;;;15.29;50.94
37972;BME280;23794;48.234;8.344;2023-04-23T09:17:02;93583.88;;;15.33;48.12
37972;BME280;23794;48.234;8.344;2023-04-23T09:19:29;93584.31;;;15.31;49.06
37972;BME280;23794;48.234;8.344;2023-04-23T09:21:57;93571.38;;;15.41;45.95
37972;BME280;23794;48.234;8.344;2023-04-23T09:24:24;93572.16;;;15.07;47.14
37972;BME280;23794;48.234;8.344;2023-04-23T09:26:51;93564.38;;;14.92;47.61
37972;BME280;23794;48.234;8.344;2023-04-23T09:29:19;93568.09;;;14.73;48.61
37972;BME280;23794;48.234;8.344;2023-04-23T09:31:53;93571.34;;;14.84;48.65
37972;BME280;23794;48.234;8.344;2023-04-23T09:34:23;93564.13;;;14.99;48.60
37972;BME280;23794;48.234;8.344;2023-04-23T09:36:51;93555.97;;;15.31;49.21
37972;BME280;23794;48.234;8.344;2023-04-23T09:39:21;93555.53;;;15.55;47.79
37972;BME280;23794;48.234;8.344;2023-04-23T09:41:50;93549.44;;;15.38;48.94
37972;BME280;23794;48.234;8.344;2023-04-23T09:44:19;93543.25;;;15.11;49.59
37972;BME280;23794;48.234;8.344;2023-04-23T09:46:47;93550.97;;;15.04;51.21
37972;BME280;23794;48.234;8.344;2023-04-23T09:49:14;93552.25;;;14.77;49.08
37972;BME280;23794;48.234;8.344;2023-04-23T09:51:44;93542.03;;;14.26;49.71
37972;BME280;23794;48.234;8.344;2023-04-23T09:54:19;93549.50;;;13.99;51.63
37972;BME280;23794;48.234;8.344;2023-04-23T09:56:53;93547.41;;;14.03;51.43
37972;BME280;23794;48.234;8.344;2023-04-23T10:02:11;93540.38;;;14.41;50.28
37972;BME280;23794;48.234;8.344;2023-04-23T10:04:38;93532.69;;;14.36;51.12
37972;BME280;23794;48.234;8.344;2023-04-23T10:07:05;93531.47;;;14.24;51.46
37972;BME280;23794;48.234;8.344;2023-04-23T10:09:46;93537.50;;;13.93;53.51
37972;BME280;23794;48.234;8.344;2023-04-23T10:12:13;93538.25;;;13.94;52.74
37972;BME280;23794;48.234;8.344;2023-04-23T10:14:43;93532.75;;;13.94;52.80
37972;BME280;23794;48.234;8.344;2023-04-23T10:17:11;93530.66;;;14.11;53.61
37972;BME280;23794;48.234;8.344;2023-04-23T10:19:38;93532.56;;;14.27;52.11
37972;BME280;23794;48.234;8.344;2023-04-23T10:22:09;93524.25;;;14.52;52.39
37972;BME280;23794;48.234;8.344;2023-04-23T10:24:52;93521.94;;;14.64;52.15
37972;BME280;23794;48.234;8.344;2023-04-23T10:27:25;93524.84;;;14.82;52.02
37972;BME280;23794;48.234;8.344;2023-04-23T10:30:12;93515.31;;;14.74;50.70
37972;BME280;23794;48.234;8.344;2023-04-23T10:32:40;93533.06;;;14.60;51.90
37972;BME280;23794;48.234;8.344;2023-04-23T10:35:08;93532.44;;;14.43;52.66
37972;BME280;23794;48.234;8.344;2023-04-23T10:37:35;93537.72;;;14.50;51.96
37972;BME280;23794;48.234;8.344;2023-04-23T10:40:11;93533.09;;;14.34;53.58
37972;BME280;23794;48.234;8.344;2023-04-23T10:42:40;93536.19;;;14.49;53.79
37972;BME280;23794;48.234;8.344;2023-04-23T10:45:14;93523.13;;;14.89;52.17
37972;BME280;23794;48.234;8.344;2023-04-23T10:47:49;93523.53;;;15.00;51.33
37972;BME280;23794;48.234;8.344;2023-04-23T10:50:25;93528.66;;;15.11;51.45
37972;BME280;23794;48.234;8.344;2023-04-23T10:52:53;93510.69;;;15.41;51.21
37972;BME280;23794;48.234;8.344;2023-04-23T10:55:22;93501.41;;;15.57;51.20
37972;BME280;23794;48.234;8.344;2023-04-23T10:58:05;93503.91;;;15.64;51.80
37972;BME280;23794;48.234;8.344;2023-04-23T11:03:38;93492.16;;;16.36;50.69
37972;BME280;23794;48.234;8.344;2023-04-23T11:06:18;93483.31;;;16.60;48.91
37972;BME280;23794;48.234;8.344;2023-04-23T11:08:52;93479.19;;;16.93;46.32
37972;BME280;23794;48.234;8.344;2023-04-23T11:11:37;93477.84;;;17.25;46.78
37972;BME280;23794;48.234;8.344;2023-04-23T11:14:12;93473.50;;;17.52;46.98
37972;BME280;23794;48.234;8.344;2023-04-23T11:16:41;93465.72;;;17.93;46.36
37972;BME280;23794;48.234;8.344;2023-04-23T11:19:09;93459.25;;;18.63;46.92
37972;BME280;23794;48.234;8.344;2023-04-23T11:21:58;93443.59;;;19.39;43.50
37972;BME280;23794;48.234;8.344;2023-04-23T11:24:34;93443.13;;;20.00;40.25
37972;BME280;23794;48.234;8.344;2023-04-23T11:27:13;93446.22;;;19.72;40.08
37972;BME280;23794;48.234;8.344;2023-04-23T11:29:42;93436.00;;;18.85;39.52
37972;BME280;23794;48.234;8.344;2023-04-23T11:32:12;93440.91;;;18.42;41.91
37972;BME280;23794;48.234;8.344;2023-04-23T11:34:45;93434.94;;;17.91;43.61
37972;BME280;23794;48.234;8.344;2023-04-23T11:37:13;93438.69;;;17.69;43.98
37972;BME280;23794;48.234;8.344;2023-04-23T11:39:41;93434.09;;;17.76;43.81
37972;BME280;23794;48.234;8.344;2023-04-23T11:42:13;93435.91;;;18.22;42.06
37972;BME280;23794;48.234;8.344;2023-04-23T11:44:42;93428.94;;;18.60;41.99
37972;BME280;23794;48.234;8.344;2023-04-23T11:47:11;93427.09;;;18.57;41.76
37972;BME280;23794;48.234;8.344;2023-04-23T11:49:39;93424.38;;;18.47;41.64
37972;BME280;23794;48.234;8.344;2023-04-23T11:52:08;93422.78;;;17.98;41.64
37972;BME280;23794;48.234;8.344;2023-04-23T11:54:35;93422.25;;;17.66;41.33
37972;BME280;23794;48.234;8.344;2023-04-23T11:57:02;93416.34;;;18.25;39.50
37972;BME280;23794;48.234;8.344;2023-04-23T11:59:30;93410.56;;;18.62;39.15
37972;BME280;23794;48.234;8.344;2023-04-23T12:01:58;93392.72;;;19.03;36.39
37972;BME280;23794;48.234;8.344;2023-04-23T12:04:29;93392.81;;;18.45;38.18
37972;BME280;23794;48.234;8.344;2023-04-23T12:06:58;93395.34;;;18.09;40.27
37972;BME280;23794;48.234;8.344;2023-04-23T12:09:26;93409.78;;;17.71;41.08
37972;BME280;23794;48.234;8.344;2023-04-23T12:11:53;93392.03;;;17.44;40.91
37972;BME280;23794;48.234;8.344;2023-04-23T12:14:25;93391.88;;;18.24;39.70
37972;BME280;23794;48.234;8.344;2023-04-23T12:16:55;93388.06;;;19.24;36.78
37972;BME280;23794;48.234;8.344;2023-04-23T12:19:29;93372.66;;;19.83;36.09
37972;BME280;23794;48.234;8.344;2023-04-23T12:21:57;93362.50;;;20.15;37.17
37972;BME280;23794;48.234;8.344;2023-04-23T12:24:47;93347.81;;;20.71;34.88
37972;BME280;23794;48.234;8.344;2023-04-23T12:27:15;93348.34;;;20.55;35.91
37972;BME280;23794;48.234;8.344;2023-04-23T12:29:45;93357.63;;;20.10;37.56
37972;BME280;23794;48.234;8.344;2023-04-23T12:32:14;93360.75;;;19.67;38.44
37972;BME280;23794;48.234;8.344;2023-04-23T12:34:53;93363.47;;;19.32;35.55
37972;BME280;23794;48.234;8.344;2023-04-23T12:37:24;93360.97;;;19.49;36.38
37972;BME280;23794;48.234;8.344;2023-04-23T12:39:52;93343.25;;;20.53;36.22
37972;BME280;23794;48.234;8.344;2023-04-23T12:42:20;93348.41;;;20.40;33.25
37972;BME280;23794;48.234;8.344;2023-04-23T12:44:46;93342.50;;;20.52;33.36
37972;BME280;23794;48.234;8.344;2023-04-23T12:47:13;93341.19;;;20.68;32.95
37972;BME280;23794;48.234;8.344;2023-04-23T12:49:45;93333.97;;;20.35;33.11
37972;BME280;23794;48.234;8.344;2023-04-23T12:52:14;93333.03;;;20.03;33.60
37972;BME280;23794;48.234;8.344;2023-04-23T12:54:41;93334.72;;;19.65;34.87
37972;BME280;23794;48.234;8.344;2023-04-23T12:57:11;93339.03;;;19.36;35.01
37972;BME280;23794;48.234;8.344;2023-04-23T12:59:38;93332.94;;;19.47;34.46
37972;BME280;23794;48.234;8.344;2023-04-23T13:02:04;93332.03;;;19.40;35.30
37972;BME280;23794;48.234;8.344;2023-04-23T13:04:34;93329.09;;;19.29;35.36
37972;BME280;23794;48.234;8.344;2023-04-23T13:07:01;93326.88;;;19.33;35.34
37972;BME280;23794;48.234;8.344;2023-04-23T13:09:29;93324.66;;;19.52;36.21
37972;BME280;23794;48.234;8.344;2023-04-23T13:11:56;93327.28;;;19.41;34.13
37972;BME280;23794;48.234;8.344;2023-04-23T13:14:22;93315.28;;;19.50;34.17
37972;BME280;23794;48.234;8.344;2023-04-23T13:16:49;93314.25;;;19.47;34.57
37972;BME280;23794;48.234;8.344;2023-04-23T13:19:16;93302.22;;;19.71;34.89